createdAt,value
2016-09-27T00:00:51.965Z,741.47
2016-09-27T00:01:51.952Z,741.46
2016-09-27T00:02:51.942Z,741.47
2016-09-27T00:03:51.936Z,741.48
2016-09-27T00:04:51.917Z,741.47
2016-09-27T00:05:51.912Z,741.46
2016-09-27T00:06:51.899Z,741.48
2016-09-27T00:07:51.880Z,741.45
2016-09-27T00:08:51.875Z,741.45
2016-09-27T00:09:51.864Z,741.46
2016-09-27T00:10:51.851Z,741.43
2016-09-27T00:11:51.839Z,741.45
2016-09-27T00:12:51.821Z,741.45
2016-09-27T00:13:51.815Z,741.48
2016-09-27T00:14:51.801Z,741.49
2016-09-27T00:15:51.790Z,741.49
2016-09-27T00:16:51.771Z,741.47
2016-09-27T00:17:51.766Z,741.49
2016-09-27T00:18:51.753Z,741.5
2016-09-27T00:19:51.739Z,741.51
2016-09-27T00:20:51.722Z,741.52
2016-09-27T00:21:51.709Z,741.49
2016-09-27T00:22:51.697Z,741.52
2016-09-27T00:23:51.685Z,741.53
2016-09-27T00:24:51.673Z,741.51
2016-09-27T00:25:51.674Z,741.51
2016-09-27T00:26:51.648Z,741.5
2016-09-27T00:27:51.637Z,741.5
2016-09-27T00:28:51.623Z,741.54
2016-09-27T00:29:51.611Z,741.48
2016-09-27T00:30:51.599Z,741.52
2016-09-27T00:31:51.587Z,741.53
2016-09-27T00:32:51.574Z,741.53
2016-09-27T00:33:51.569Z,741.53
2016-09-27T00:34:51.549Z,741.52
2016-09-27T00:35:51.545Z,741.5
2016-09-27T00:36:51.524Z,741.51
2016-09-27T00:37:51.518Z,741.49
2016-09-27T00:38:51.509Z,741.52
2016-09-27T00:39:51.494Z,741.5
2016-09-27T00:40:51.482Z,741.5
2016-09-27T00:41:51.464Z,741.5
2016-09-27T00:42:51.451Z,741.5
2016-09-27T00:43:51.439Z,741.53
2016-09-27T00:44:51.434Z,741.46
2016-09-27T00:45:51.421Z,741.48
2016-09-27T00:46:51.410Z,741.45
2016-09-27T00:47:51.397Z,741.5
2016-09-27T00:48:51.385Z,741.49
2016-09-27T00:49:51.374Z,741.49
2016-09-27T00:50:51.353Z,741.51
2016-09-27T00:51:51.349Z,741.44
2016-09-27T00:52:51.331Z,741.47
2016-09-27T00:53:51.325Z,741.5
2016-09-27T00:54:51.306Z,741.47
2016-09-27T00:55:51.295Z,741.46
2016-09-27T00:56:51.282Z,741.45
2016-09-27T00:57:51.271Z,741.46
2016-09-27T00:58:51.266Z,741.49
2016-09-27T00:59:51.254Z,741.46
2016-09-27T01:00:51.236Z,741.45
2016-09-27T01:01:51.231Z,741.45
2016-09-27T01:02:51.212Z,741.48
2016-09-27T01:03:51.207Z,741.48
2016-09-27T01:04:51.197Z,741.49
2016-09-27T01:05:51.178Z,741.49
2016-09-27T01:06:51.166Z,741.48
2016-09-27T01:07:51.161Z,741.46
2016-09-27T01:08:51.149Z,741.47
2016-09-27T01:09:51.137Z,741.48
2016-09-27T01:10:51.125Z,741.46
2016-09-27T01:11:51.106Z,741.47
2016-09-27T01:12:51.102Z,741.51
2016-09-27T01:13:51.091Z,741.49
2016-09-27T01:14:51.071Z,741.52
2016-09-27T01:15:51.068Z,741.51
2016-09-27T01:16:51.056Z,741.5
2016-09-27T01:17:51.038Z,741.52
2016-09-27T01:18:51.027Z,741.49
2016-09-27T01:19:51.020Z,741.49
2016-09-27T01:20:51.003Z,741.48
2016-09-27T01:21:50.998Z,741.5
2016-09-27T01:22:50.978Z,741.49
2016-09-27T01:23:50.988Z,741.46
2016-09-27T01:24:50.962Z,741.47
2016-09-27T01:25:50.951Z,741.5
2016-09-27T01:26:50.932Z,741.46
2016-09-27T01:27:50.918Z,741.49
2016-09-27T01:28:50.915Z,741.49
2016-09-27T01:29:50.903Z,741.47
2016-09-27T01:30:50.883Z,741.45
2016-09-27T01:31:50.880Z,741.5
2016-09-27T01:32:50.866Z,741.48
2016-09-27T01:33:50.848Z,741.51
2016-09-27T01:34:50.836Z,741.5
2016-09-27T01:35:50.822Z,741.48
2016-09-27T01:36:50.826Z,741.48
2016-09-27T01:37:50.806Z,741.47
2016-09-27T01:38:50.785Z,741.52
2016-09-27T01:39:50.781Z,741.47
2016-09-27T01:40:50.762Z,741.53
2016-09-27T01:41:50.756Z,741.44
2016-09-27T01:42:50.744Z,741.5
2016-09-27T01:43:50.731Z,741.47
2016-09-27T01:44:50.720Z,741.52
2016-09-27T01:45:50.707Z,741.49
2016-09-27T01:46:50.694Z,741.52
2016-09-27T01:47:50.682Z,741.52
2016-09-27T01:48:50.663Z,741.52
2016-09-27T01:49:50.657Z,741.51
2016-09-27T01:50:50.645Z,741.54
2016-09-27T01:51:50.634Z,741.53
2016-09-27T01:52:50.619Z,741.55
2016-09-27T01:53:50.607Z,741.54
2016-09-27T01:54:50.600Z,741.56
2016-09-27T01:55:50.575Z,741.53
2016-09-27T01:56:50.568Z,741.55
2016-09-27T01:57:50.549Z,741.56
2016-09-27T01:58:50.537Z,741.58
2016-09-27T01:59:50.532Z,741.56
2016-09-27T02:00:50.513Z,741.56
2016-09-27T02:01:50.500Z,741.57
2016-09-27T02:02:50.489Z,741.52
2016-09-27T02:03:50.481Z,741.57
2016-09-27T02:04:50.461Z,741.56
2016-09-27T02:05:50.457Z,741.57
2016-09-27T02:06:50.445Z,741.56
2016-09-27T02:07:50.438Z,741.56
2016-09-27T02:08:50.420Z,741.57
2016-09-27T02:09:50.408Z,741.52
2016-09-27T02:10:50.395Z,741.55
2016-09-27T02:11:50.375Z,741.56
2016-09-27T02:12:50.363Z,741.59
2016-09-27T02:13:50.351Z,741.57
2016-09-27T02:14:50.338Z,741.59
2016-09-27T02:15:50.327Z,741.52
2016-09-27T02:16:50.322Z,741.51
2016-09-27T02:17:50.302Z,741.54
2016-09-27T02:18:50.291Z,741.55
2016-09-27T02:19:50.285Z,741.59
2016-09-27T02:20:50.273Z,741.57
2016-09-27T02:21:50.262Z,741.57
2016-09-27T02:22:50.248Z,741.55
2016-09-27T02:23:50.231Z,741.59
2016-09-27T02:24:50.225Z,741.6
2016-09-27T02:25:50.213Z,741.56
2016-09-27T02:26:50.201Z,741.61
2016-09-27T02:27:50.182Z,741.6
2016-09-27T02:28:50.178Z,741.59
2016-09-27T02:29:50.165Z,741.61
2016-09-27T02:30:50.146Z,741.58
2016-09-27T02:31:50.142Z,741.62
2016-09-27T02:32:50.130Z,741.6
2016-09-27T02:33:50.118Z,741.6
2016-09-27T02:34:50.106Z,741.61
2016-09-27T02:35:50.087Z,741.63
2016-09-27T02:36:50.082Z,741.61
2016-09-27T02:37:50.071Z,741.61
2016-09-27T02:38:50.051Z,741.62
2016-09-27T02:39:50.040Z,741.6
2016-09-27T02:40:50.033Z,741.63
2016-09-27T02:41:50.021Z,741.64
2016-09-27T02:42:50.003Z,741.65
2016-09-27T02:43:49.996Z,741.64
2016-09-27T02:44:49.977Z,741.62
2016-09-27T02:45:49.972Z,741.65
2016-09-27T02:46:49.961Z,741.64
2016-09-27T02:47:49.948Z,741.61
2016-09-27T02:48:49.935Z,741.65
2016-09-27T02:49:49.924Z,741.61
2016-09-27T02:50:49.905Z,741.62
2016-09-27T02:51:49.899Z,741.66
2016-09-27T02:52:49.888Z,741.66
2016-09-27T02:53:49.876Z,741.66
2016-09-27T02:54:49.856Z,741.67
2016-09-27T02:55:49.846Z,741.67
2016-09-27T02:56:49.833Z,741.63
2016-09-27T02:57:49.821Z,741.64
2016-09-27T02:58:49.810Z,741.64
2016-09-27T02:59:49.805Z,741.66
2016-09-27T03:00:49.788Z,741.66
2016-09-27T03:01:49.782Z,741.7
2016-09-27T03:02:49.763Z,741.66
2016-09-27T03:03:49.758Z,741.7
2016-09-27T03:04:49.748Z,741.7
2016-09-27T03:05:49.737Z,741.68
2016-09-27T03:06:49.724Z,741.68
2016-09-27T03:07:49.706Z,741.7
2016-09-27T03:08:49.702Z,741.67
2016-09-27T03:09:49.683Z,741.67
2016-09-27T03:10:49.679Z,741.67
2016-09-27T03:11:49.668Z,741.67
2016-09-27T03:12:49.650Z,741.67
2016-09-27T03:13:49.645Z,741.62
2016-09-27T03:14:49.627Z,741.66
2016-09-27T03:15:49.617Z,741.62
2016-09-27T03:16:49.603Z,741.64
2016-09-27T03:17:49.599Z,741.64
2016-09-27T03:18:49.588Z,741.59
2016-09-27T03:19:49.578Z,741.63
2016-09-27T03:20:49.559Z,741.61
2016-09-27T03:21:49.555Z,741.58
2016-09-27T03:22:49.537Z,741.59
2016-09-27T03:23:49.534Z,741.56
2016-09-27T03:24:49.514Z,741.58
2016-09-27T03:25:49.504Z,741.53
2016-09-27T03:26:49.500Z,741.58
2016-09-27T03:27:49.488Z,741.57
2016-09-27T03:28:49.469Z,741.51
2016-09-27T03:29:49.458Z,741.48
2016-09-27T03:30:49.449Z,741.43
2016-09-27T03:31:49.444Z,741.46
2016-09-27T03:32:49.433Z,741.44
2016-09-27T03:33:49.416Z,741.46
2016-09-27T03:34:49.555Z,741.5
2016-09-27T03:35:49.406Z,741.49
2016-09-27T03:36:49.381Z,741.48
2016-09-27T03:37:49.378Z,741.44
2016-09-27T03:38:49.367Z,741.49
2016-09-27T03:39:49.349Z,741.48
2016-09-27T03:40:49.339Z,741.48
2016-09-27T03:41:49.334Z,741.45
2016-09-27T03:42:49.315Z,741.44
2016-09-27T03:43:49.305Z,741.43
2016-09-27T03:44:49.313Z,741.44
2016-09-27T03:45:49.291Z,741.47
2016-09-27T03:46:49.273Z,741.4
2016-09-27T03:47:49.262Z,741.43
2016-09-27T03:48:49.250Z,741.49
2016-09-27T03:49:49.240Z,741.46
2016-09-27T03:50:49.235Z,741.48
2016-09-27T03:51:49.225Z,741.49
2016-09-27T03:52:49.205Z,741.51
2016-09-27T03:53:49.202Z,741.51
2016-09-27T03:54:49.183Z,741.5
2016-09-27T03:55:49.174Z,741.51
2016-09-27T03:56:49.164Z,741.49
2016-09-27T03:57:49.158Z,741.53
2016-09-27T03:58:49.140Z,741.53
2016-09-27T03:59:49.131Z,741.52
2016-09-27T04:00:49.119Z,741.52
2016-09-27T04:01:49.107Z,741.54
2016-09-27T04:02:49.103Z,741.54
2016-09-27T04:03:49.085Z,741.51
2016-09-27T04:04:49.081Z,741.53
2016-09-27T04:05:49.064Z,741.54
2016-09-27T04:06:49.052Z,741.52
2016-09-27T04:07:49.048Z,741.53
2016-09-27T04:08:49.037Z,741.53
2016-09-27T04:09:49.027Z,741.54
2016-09-27T04:10:49.009Z,741.55
2016-09-27T04:11:48.996Z,741.56
2016-09-27T04:12:48.985Z,741.55
2016-09-27T04:13:48.975Z,741.51
2016-09-27T04:14:48.971Z,741.56
2016-09-27T04:15:48.959Z,741.52
2016-09-27T04:16:48.941Z,741.54
2016-09-27T04:17:48.937Z,741.56
2016-09-27T04:18:48.919Z,741.56
2016-09-27T04:19:48.918Z,741.57
2016-09-27T04:20:48.904Z,741.55
2016-09-27T04:21:48.886Z,741.59
2016-09-27T04:22:48.881Z,741.56
2016-09-27T04:23:48.864Z,741.57
2016-09-27T04:24:48.859Z,741.57
2016-09-27T04:25:48.840Z,741.6
2016-09-27T04:26:48.836Z,741.64
2016-09-27T04:27:48.819Z,741.61
2016-09-27T04:28:48.813Z,741.64
2016-09-27T04:29:48.802Z,741.64
2016-09-27T04:30:48.785Z,741.65
2016-09-27T04:31:48.773Z,741.67
2016-09-27T04:32:48.762Z,741.69
2016-09-27T04:33:48.751Z,741.71
2016-09-27T04:34:48.745Z,741.72
2016-09-27T04:35:48.735Z,741.69
2016-09-27T04:36:48.717Z,741.71
2016-09-27T04:37:48.711Z,741.68
2016-09-27T04:38:48.695Z,741.7
2016-09-27T04:39:48.682Z,741.72
2016-09-27T04:40:48.670Z,741.72
2016-09-27T04:41:48.660Z,741.75
2016-09-27T04:42:48.648Z,741.72
2016-09-27T04:43:48.644Z,741.74
2016-09-27T04:44:48.633Z,741.72
2016-09-27T04:45:48.614Z,741.77
2016-09-27T04:46:48.610Z,741.79
2016-09-27T04:47:48.600Z,741.77
2016-09-27T04:48:48.588Z,741.81
2016-09-27T04:49:48.569Z,741.83
2016-09-27T04:50:48.558Z,741.85
2016-09-27T04:51:48.553Z,741.87
2016-09-27T04:52:48.537Z,741.89
2016-09-27T04:53:48.531Z,741.9
2016-09-27T04:54:48.520Z,741.91
2016-09-27T04:55:48.502Z,741.92
2016-09-27T04:56:48.498Z,741.85
2016-09-27T04:57:48.480Z,741.87
2016-09-27T04:58:48.476Z,741.89
2016-09-27T04:59:48.464Z,741.92
2016-09-27T05:00:48.445Z,741.92
2016-09-27T05:01:48.435Z,741.91
2016-09-27T05:02:48.429Z,741.96
2016-09-27T05:03:48.418Z,741.97
2016-09-27T05:04:48.400Z,741.96
2016-09-27T05:05:48.391Z,741.97
2016-09-27T05:06:48.379Z,741.97
2016-09-27T05:07:48.373Z,741.96
2016-09-27T05:08:48.363Z,742.03
2016-09-27T05:09:48.353Z,742.01
2016-09-27T05:10:48.553Z,741.98
2016-09-27T05:11:48.322Z,742.01
2016-09-27T05:12:48.312Z,741.98
2016-09-27T05:13:48.307Z,741.96
2016-09-27T05:14:48.289Z,742.03
2016-09-27T05:15:48.488Z,742.05
2016-09-27T05:16:48.269Z,742.02
2016-09-27T05:17:48.257Z,742
2016-09-27T05:18:48.253Z,742.02
2016-09-27T05:19:48.243Z,742
2016-09-27T05:20:48.232Z,742.03
2016-09-27T05:21:48.214Z,742.07
2016-09-27T05:22:48.203Z,742.05
2016-09-27T05:23:48.199Z,742.09
2016-09-27T05:24:48.187Z,742.07
2016-09-27T05:25:48.177Z,742.1
2016-09-27T05:26:48.160Z,742.11
2016-09-27T05:27:48.148Z,742.14
2016-09-27T05:28:48.138Z,742.15
2016-09-27T05:29:48.133Z,742.15
2016-09-27T05:30:48.123Z,742.13
2016-09-27T05:31:48.113Z,742.09
2016-09-27T05:32:48.102Z,742.12
2016-09-27T05:33:48.092Z,742.14
2016-09-27T05:34:48.081Z,742.1
2016-09-27T05:35:48.063Z,742.12
2016-09-27T05:36:48.052Z,742.11
2016-09-27T05:37:48.042Z,742.12
2016-09-27T05:38:48.039Z,742.12
2016-09-27T05:39:48.028Z,742.15
2016-09-27T05:40:48.010Z,742.11
2016-09-27T05:41:48.010Z,742.11
2016-09-27T05:42:47.997Z,742.17
2016-09-27T05:43:47.987Z,742.17
2016-09-27T05:44:47.977Z,742.17
2016-09-27T05:45:47.960Z,742.14
2016-09-27T05:46:47.954Z,742.15
2016-09-27T05:47:48.148Z,742.16
2016-09-27T05:48:47.936Z,742.16
2016-09-27T05:49:47.925Z,742.19
2016-09-27T05:50:47.915Z,742.21
2016-09-27T05:51:47.904Z,742.2
2016-09-27T05:52:47.894Z,742.16
2016-09-27T05:53:47.877Z,742.16
2016-09-27T05:54:47.867Z,742.2
2016-09-27T05:55:47.864Z,742.2
2016-09-27T05:56:47.847Z,742.17
2016-09-27T05:57:47.835Z,742.16
2016-09-27T05:58:47.825Z,742.17
2016-09-27T05:59:47.822Z,742.19
2016-09-27T06:00:47.813Z,742.2
2016-09-27T06:01:47.802Z,742.2
2016-09-27T06:02:47.791Z,742.15
2016-09-27T06:03:47.774Z,742.19
2016-09-27T06:04:47.765Z,742.17
2016-09-27T06:05:47.753Z,742.18
2016-09-27T06:06:47.751Z,742.16
2016-09-27T06:07:47.741Z,742.16
2016-09-27T06:08:47.723Z,742.21
2016-09-27T06:09:47.714Z,742.2
2016-09-27T06:10:47.710Z,742.28
2016-09-27T06:11:47.692Z,742.26
2016-09-27T06:12:47.683Z,742.27
2016-09-27T06:13:47.671Z,742.27
2016-09-27T06:14:47.662Z,742.33
2016-09-27T06:15:47.651Z,742.25
2016-09-27T06:16:47.641Z,742.26
2016-09-27T06:17:47.636Z,742.25
2016-09-27T06:18:47.618Z,742.27
2016-09-27T06:19:47.607Z,742.28
2016-09-27T06:20:47.601Z,742.32
2016-09-27T06:21:47.586Z,742.33
2016-09-27T06:25:10.727Z,742.33
2016-09-27T06:26:10.708Z,742.38
2016-09-27T06:27:10.696Z,742.36
2016-09-27T06:28:10.684Z,742.38
2016-09-27T06:29:10.672Z,742.4
2016-09-27T06:30:10.666Z,742.37
2016-09-27T06:31:10.647Z,742.35
2016-09-27T06:32:10.641Z,742.33
2016-09-27T06:33:10.628Z,742.32
2016-09-27T06:34:10.616Z,742.33
2016-09-27T06:35:10.597Z,742.35
2016-09-27T06:36:10.584Z,742.35
2016-09-27T06:37:10.579Z,742.34
2016-09-27T06:38:10.558Z,742.36
2016-09-27T06:39:10.546Z,742.41
2016-09-27T06:40:10.534Z,742.42
2016-09-27T06:41:10.527Z,742.4
2016-09-27T06:42:10.515Z,742.41
2016-09-27T06:43:10.497Z,742.38
2016-09-27T06:44:10.481Z,742.44
2016-09-27T06:45:10.474Z,742.4
2016-09-27T06:46:10.454Z,742.4
2016-09-27T06:47:10.440Z,742.42
2016-09-27T06:48:10.436Z,742.42
2016-09-27T06:49:10.415Z,742.41
2016-09-27T06:50:10.409Z,742.37
2016-09-27T06:51:10.395Z,742.37
2016-09-27T06:52:10.383Z,742.41
2016-09-27T06:53:10.370Z,742.39
2016-09-27T06:54:10.350Z,742.43
2016-09-27T06:55:10.337Z,742.46
2016-09-27T06:56:10.324Z,742.47
2016-09-27T06:57:10.310Z,742.41
2016-09-27T06:58:10.304Z,742.43
2016-09-27T06:59:10.284Z,742.47
2016-09-27T07:00:10.270Z,742.53
2016-09-27T07:01:10.256Z,742.58
2016-09-27T07:02:10.243Z,742.56
2016-09-27T07:03:10.230Z,742.55
2016-09-27T07:04:10.216Z,742.6
2016-09-27T07:05:10.202Z,742.64
2016-09-27T07:06:10.189Z,742.6
2016-09-27T07:07:10.183Z,742.65
2016-09-27T07:08:10.162Z,742.68
2016-09-27T07:09:10.163Z,742.68
2016-09-27T07:10:10.145Z,742.69
2016-09-27T07:11:10.123Z,742.68
2016-09-27T07:12:10.110Z,742.75
2016-09-27T07:13:10.104Z,742.76
2016-09-27T07:14:10.085Z,742.77
2016-09-27T07:15:10.078Z,742.74
2016-09-27T07:16:10.059Z,742.76
2016-09-27T07:17:10.052Z,742.75
2016-09-27T07:18:10.032Z,742.78
2016-09-27T07:19:10.025Z,742.78
2016-09-27T07:20:10.012Z,742.83
2016-09-27T07:21:09.992Z,742.81
2016-09-27T07:22:09.979Z,742.81
2016-09-27T07:23:09.966Z,742.84
2016-09-27T07:24:09.959Z,742.91
2016-09-27T07:25:09.945Z,742.9
2016-09-27T07:26:09.932Z,742.89
2016-09-27T07:27:09.919Z,742.91
2016-09-27T07:28:09.905Z,742.94
2016-09-27T07:29:09.892Z,742.93
2016-09-27T07:30:09.872Z,742.95
2016-09-27T07:31:09.866Z,742.94
2016-09-27T07:32:09.853Z,742.95
2016-09-27T07:33:09.838Z,742.94
2016-09-27T07:34:09.827Z,742.95
2016-09-27T07:35:09.814Z,742.99
2016-09-27T07:36:09.795Z,742.97
2016-09-27T07:37:09.782Z,743.01
2016-09-27T07:38:09.770Z,742.99
2016-09-27T07:39:09.764Z,743.04
2016-09-27T07:40:09.751Z,743.02
2016-09-27T07:41:09.732Z,743.05
2016-09-27T07:42:09.728Z,743
2016-09-27T07:43:09.709Z,743.05
2016-09-27T07:44:09.703Z,743.06
2016-09-27T07:45:09.691Z,743.07
2016-09-27T07:46:09.680Z,742.98
2016-09-27T07:47:09.668Z,743.03
2016-09-27T07:48:09.651Z,743.05
2016-09-27T07:49:09.638Z,743.02
2016-09-27T07:50:09.635Z,743.06
2016-09-27T07:51:09.617Z,743.08
2016-09-27T07:52:09.613Z,743.04
2016-09-27T07:53:09.594Z,743.06
2016-09-27T07:54:09.583Z,743.1
2016-09-27T07:55:09.578Z,743.07
2016-09-27T07:56:09.561Z,743.12
2016-09-27T07:57:09.550Z,743.14
2016-09-27T07:58:09.539Z,743.1
2016-09-27T07:59:09.529Z,743.11
2016-09-27T08:00:09.524Z,743.05
2016-09-27T08:01:09.508Z,743.08
2016-09-27T08:02:09.495Z,743.07
2016-09-27T08:03:09.486Z,743.07
2016-09-27T08:04:09.482Z,743.1
2016-09-27T08:05:09.472Z,743.09
2016-09-27T08:06:09.453Z,743.11
2016-09-27T08:07:09.444Z,743.09
2016-09-27T08:08:09.434Z,743.08
2016-09-27T08:09:09.421Z,743.12
2016-09-27T08:10:09.411Z,743.06
2016-09-27T08:11:09.407Z,743.12
2016-09-27T08:12:09.398Z,743.11
2016-09-27T08:13:09.386Z,743.15
2016-09-27T08:14:09.369Z,743.12
2016-09-27T08:15:09.366Z,743.13
2016-09-27T08:16:09.348Z,743.12
2016-09-27T08:17:09.343Z,743.15
2016-09-27T08:18:09.333Z,743.15
2016-09-27T08:19:09.323Z,743.16
2016-09-27T08:20:09.311Z,743.18
2016-09-27T08:21:09.295Z,743.19
2016-09-27T08:22:09.283Z,743.21
2016-09-27T08:23:09.279Z,743.25
2016-09-27T08:24:09.259Z,743.26
2016-09-27T08:25:09.249Z,743.25
2016-09-27T08:26:09.237Z,743.36
2016-09-27T08:27:09.227Z,743.25
2016-09-27T08:28:09.216Z,743.23
2016-09-27T08:29:09.205Z,743.23
2016-09-27T08:30:09.200Z,743.25
2016-09-27T08:31:09.187Z,743.24
2016-09-27T08:32:09.171Z,743.27
2016-09-27T08:33:09.160Z,743.32
2016-09-27T08:34:09.156Z,743.32
2016-09-27T08:35:09.137Z,743.28
2016-09-27T08:36:09.136Z,743.3
2016-09-27T08:37:09.116Z,743.26
2016-09-27T08:38:09.109Z,743.29
2016-09-27T08:39:09.094Z,743.27
2016-09-27T08:40:09.083Z,743.32
2016-09-27T08:41:09.074Z,743.31
2016-09-27T08:42:09.062Z,743.34
2016-09-27T08:43:09.055Z,743.34
2016-09-27T08:44:09.044Z,743.29
2016-09-27T08:45:09.026Z,743.29
2016-09-27T08:46:09.021Z,743.36
2016-09-27T08:47:09.003Z,743.35
2016-09-27T08:48:08.999Z,743.32
2016-09-27T08:49:08.987Z,743.34
2016-09-27T08:50:08.969Z,743.32
2016-09-27T08:51:08.957Z,743.35
2016-09-27T08:52:08.946Z,743.37
2016-09-27T08:53:08.933Z,743.38
2016-09-27T08:54:08.929Z,743.35
2016-09-27T08:55:08.910Z,743.36
2016-09-27T08:56:08.906Z,743.41
2016-09-27T08:57:08.894Z,743.39
2016-09-27T08:58:08.876Z,743.46
2016-09-27T08:59:08.873Z,743.42
2016-09-27T09:00:08.854Z,743.48
2016-09-27T09:01:08.850Z,743.47
2016-09-27T09:02:08.832Z,743.49
2016-09-27T09:03:08.821Z,743.5
2016-09-27T09:04:08.815Z,743.47
2016-09-27T09:05:08.804Z,743.46
2016-09-27T09:06:08.793Z,743.49
2016-09-27T09:07:08.782Z,743.5
2016-09-27T09:08:08.763Z,743.53
2016-09-27T09:09:08.752Z,743.5
2016-09-27T09:10:08.740Z,743.49
2016-09-27T09:11:08.730Z,743.53
2016-09-27T09:12:08.726Z,743.53
2016-09-27T09:13:08.707Z,743.55
2016-09-27T09:14:08.704Z,743.53
2016-09-27T09:15:08.686Z,743.46
2016-09-27T09:16:08.674Z,743.45
2016-09-27T09:17:08.669Z,743.5
2016-09-27T09:18:08.652Z,743.49
2016-09-27T09:19:08.647Z,743.49
2016-09-27T09:20:08.629Z,743.5
2016-09-27T09:21:08.618Z,743.51
2016-09-27T09:22:08.615Z,743.52
2016-09-27T09:23:08.598Z,743.59
2016-09-27T09:24:08.594Z,743.5
2016-09-27T09:25:08.578Z,743.52
2016-09-27T09:26:08.566Z,743.54
2016-09-27T09:27:08.564Z,743.52
2016-09-27T09:28:08.553Z,743.52
2016-09-27T09:29:08.543Z,743.54
2016-09-27T09:30:08.533Z,743.56
2016-09-27T09:31:08.519Z,743.51
2016-09-27T09:32:08.506Z,743.53
2016-09-27T09:33:08.500Z,743.51
2016-09-27T09:34:08.491Z,743.47
2016-09-27T09:35:08.474Z,743.53
2016-09-27T09:36:08.470Z,743.55
2016-09-27T09:37:08.454Z,743.49
2016-09-27T09:38:08.450Z,743.55
2016-09-27T09:39:08.436Z,743.59
2016-09-27T09:40:08.429Z,743.61
2016-09-27T09:41:08.411Z,743.56
2016-09-27T09:42:08.408Z,743.64
2016-09-27T09:43:08.391Z,743.62
2016-09-27T09:44:08.380Z,743.63
2016-09-27T09:45:08.369Z,743.63
2016-09-27T09:46:08.367Z,743.65
2016-09-27T09:47:08.350Z,743.65
2016-09-27T09:48:08.344Z,743.68
2016-09-27T09:49:08.328Z,743.66
2016-09-27T09:50:08.318Z,743.72
2016-09-27T09:51:08.315Z,743.77
2016-09-27T09:52:08.303Z,743.77
2016-09-27T09:53:08.293Z,743.8
2016-09-27T09:54:08.283Z,743.73
2016-09-27T09:55:08.265Z,743.76
2016-09-27T09:56:08.262Z,743.77
2016-09-27T09:57:08.245Z,743.77
2016-09-27T09:58:08.243Z,743.82
2016-09-27T09:59:08.224Z,743.83
2016-09-27T10:00:08.214Z,743.84
2016-09-27T10:01:08.212Z,743.8
2016-09-27T10:02:08.194Z,743.8
2016-09-27T10:03:08.191Z,743.76
2016-09-27T10:04:08.181Z,743.79
2016-09-27T10:05:08.171Z,743.82
2016-09-27T10:06:08.153Z,743.75
2016-09-27T10:07:08.142Z,743.84
2016-09-27T10:08:08.141Z,743.85
2016-09-27T10:09:08.131Z,743.83
2016-09-27T10:10:08.114Z,743.84
2016-09-27T10:11:08.112Z,743.84
2016-09-27T10:12:08.102Z,743.84
2016-09-27T10:13:08.086Z,743.86
2016-09-27T10:14:08.084Z,743.86
2016-09-27T10:15:08.075Z,743.83
2016-09-27T10:16:08.067Z,743.85
2016-09-27T10:17:08.050Z,743.79
2016-09-27T10:18:08.046Z,743.8
2016-09-27T10:19:08.032Z,743.71
2016-09-27T10:20:08.029Z,743.8
2016-09-27T10:21:08.023Z,743.78
2016-09-27T10:22:08.003Z,743.83
2016-09-27T10:23:07.992Z,743.81
2016-09-27T10:24:07.991Z,743.79
2016-09-27T10:25:07.981Z,743.88
2016-09-27T10:26:07.972Z,743.8
2016-09-27T10:27:07.956Z,743.71
2016-09-27T10:28:07.952Z,743.7
2016-09-27T10:29:07.943Z,743.69
2016-09-27T10:30:07.934Z,743.85
2016-09-27T10:31:07.925Z,743.88
2016-09-27T10:32:07.914Z,743.84
2016-09-27T10:33:07.897Z,743.87
2016-09-27T10:34:07.895Z,743.88
2016-09-27T10:35:07.886Z,743.9
2016-09-27T10:36:07.869Z,743.82
2016-09-27T10:37:07.865Z,743.75
2016-09-27T10:38:07.855Z,743.73
2016-09-27T10:39:07.845Z,743.74
2016-09-27T10:40:07.829Z,743.74
2016-09-27T10:41:07.819Z,743.74
2016-09-27T10:42:07.809Z,743.82
2016-09-27T10:43:07.796Z,743.8
2016-09-27T10:44:07.794Z,743.77
2016-09-27T10:45:07.784Z,743.74
2016-09-27T10:46:07.774Z,743.79
2016-09-27T10:47:07.763Z,743.78
2016-09-27T10:48:07.758Z,743.75
2016-09-27T10:49:07.743Z,743.75
2016-09-27T10:50:07.825Z,743.78
2016-09-27T10:51:07.722Z,743.74
2016-09-27T10:52:07.713Z,743.79
2016-09-27T10:53:07.702Z,743.73
2016-09-27T10:54:07.691Z,743.77
2016-09-27T10:55:07.675Z,743.79
2016-09-27T10:56:07.666Z,743.77
2016-09-27T10:57:07.661Z,743.84
2016-09-27T10:58:07.644Z,743.87
2016-09-27T10:59:07.639Z,743.84
2016-09-27T11:00:07.622Z,743.88
2016-09-27T11:01:07.609Z,743.87
2016-09-27T11:02:07.807Z,743.88
2016-09-27T11:03:07.595Z,743.86
2016-09-27T11:04:07.584Z,743.85
2016-09-27T11:05:07.571Z,743.89
2016-09-27T11:06:07.554Z,743.88
2016-09-27T11:07:07.542Z,743.9
2016-09-27T11:08:07.532Z,743.92
2016-09-27T11:09:07.527Z,743.9
2016-09-27T11:10:07.510Z,743.93
2016-09-27T11:11:07.506Z,743.92
2016-09-27T11:12:07.492Z,743.94
2016-09-27T11:13:07.481Z,743.97
2016-09-27T11:14:07.470Z,743.92
2016-09-27T11:15:07.460Z,743.95
2016-09-27T11:16:07.440Z,743.98
2016-09-27T11:17:07.429Z,743.96
2016-09-27T11:18:07.417Z,743.98
2016-09-27T11:19:07.405Z,743.96
2016-09-27T11:20:07.394Z,743.97
2016-09-27T11:21:07.382Z,743.97
2016-09-27T11:22:07.379Z,743.98
2016-09-27T11:23:07.367Z,743.96
2016-09-27T11:24:07.348Z,743.99
2016-09-27T11:25:07.336Z,743.93
2016-09-27T11:26:07.326Z,743.96
2016-09-27T11:27:07.319Z,743.96
2016-09-27T11:28:07.301Z,743.96
2016-09-27T11:29:07.290Z,744.01
2016-09-27T11:30:07.278Z,744
2016-09-27T11:31:07.273Z,743.98
2016-09-27T11:32:07.255Z,744.01
2016-09-27T11:33:07.453Z,743.98
2016-09-27T11:34:07.239Z,743.98
2016-09-27T11:35:07.227Z,744.06
2016-09-27T11:36:07.210Z,744.06
2016-09-27T11:37:07.198Z,744.05
2016-09-27T11:38:07.187Z,744.07
2016-09-27T11:39:07.175Z,744.04
2016-09-27T11:40:07.170Z,744.05
2016-09-27T11:41:07.159Z,744.04
2016-09-27T11:42:07.148Z,744.01
2016-09-27T11:43:07.136Z,744.08
2016-09-27T11:44:07.127Z,744.04
2016-09-27T11:45:07.115Z,744.09
2016-09-27T11:46:07.097Z,744.1
2016-09-27T11:47:07.093Z,744.09
2016-09-27T11:48:07.088Z,744.09
2016-09-27T11:49:07.069Z,744.06
2016-09-27T11:50:07.051Z,744.05
2016-09-27T11:51:07.042Z,744.06
2016-09-27T11:52:07.029Z,744.09
2016-09-27T11:53:07.025Z,744.09
2016-09-27T11:54:07.008Z,744.14
2016-09-27T11:55:07.004Z,744.13
2016-09-27T11:56:06.993Z,744.11
2016-09-27T11:57:06.988Z,744.18
2016-09-27T11:58:06.964Z,744.16
2016-09-27T11:59:06.963Z,744.15
2016-09-27T12:00:06.944Z,744.12
2016-09-27T12:01:06.939Z,744.16
2016-09-27T12:02:06.929Z,744.14
2016-09-27T12:03:06.917Z,744.18
2016-09-27T12:04:07.102Z,744.21
2016-09-27T12:05:07.098Z,744.16
2016-09-27T12:06:06.886Z,744.15
2016-09-27T12:07:06.869Z,744.16
2016-09-27T12:08:06.865Z,744.17
2016-09-27T12:09:06.847Z,744.16
2016-09-27T12:10:06.844Z,744.16
2016-09-27T12:11:06.833Z,744.18
2016-09-27T12:12:07.022Z,744.18
2016-09-27T12:13:06.804Z,744.15
2016-09-27T12:14:06.793Z,744.13
2016-09-27T12:15:06.790Z,744.18
2016-09-27T12:16:06.772Z,744.09
2016-09-27T12:17:06.762Z,744.12
2016-09-27T12:18:06.750Z,744.14
2016-09-27T12:19:06.742Z,744.15
2016-09-27T12:20:06.731Z,744.14
2016-09-27T12:21:06.721Z,744.14
2016-09-27T12:22:06.717Z,744.1
2016-09-27T12:23:06.707Z,744.13
2016-09-27T12:24:06.689Z,744.12
2016-09-27T12:25:06.679Z,744.09
2016-09-27T12:26:06.674Z,744.17
2016-09-27T12:27:06.664Z,744.17
2016-09-27T12:28:06.654Z,744.15
2016-09-27T12:29:06.635Z,744.18
2016-09-27T12:30:06.625Z,744.19
2016-09-27T12:31:06.621Z,744.21
2016-09-27T12:32:06.602Z,744.19
2016-09-27T12:33:06.593Z,744.21
2016-09-27T12:34:06.582Z,744.18